sensor_id;sensor_type;location;lat;lon;timestamp;temperature;humidity
46490;DHT22;32204;49.160;8.580;2023-04-01T00:01:30;10.60;99.90
46490;DHT22;32204;49.160;8.580;2023-04-01T00:03:56;10.60;99.90
46490;DHT22;32204;49.160;8.580;2023-04-01T00:06:22;10.60;99.90
46490;DHT22;32204;49.160;8.580;2023-04-01T00:08:47;10.70;99.90
46490;DHT22;32204;49.160;8.580;2023-04-01T00:11:14;10.60;99.90
46490;DHT22;32204;49.160;8.580;2023-04-01T00:13:40;10.60;99.90
46490;DHT22;32204;49.160;8.580;2023-04-01T00:16:07;10.70;99.90
46490;DHT22;32204;49.160;8.580;2023-04-01T00:18:33;10.60;99.90
46490;DHT22;32204;49.160;8.580;2023-04-01T00:20:58;10.60;99.90
46490;DHT22;32204;49.160;8.580;2023-04-01T00:23:25;10.60;99.90
46490;DHT22;32204;49.160;8.580;2023-04-01T00:25:51;10.60;99.90
46490;DHT22;32204;49.160;8.580;2023-04-01T00:28:19;10.60;99.90
46490;DHT22;32204;49.160;8.580;2023-04-01T00:30:45;10.70;99.90
46490;DHT22;32204;49.160;8.580;2023-04-01T00:33:11;10.70;99.90
46490;DHT22;32204;49.160;8.580;2023-04-01T00:35:37;10.70;99.90
46490;DHT22;32204;49.160;8.580;2023-04-01T00:38:03;10.70;99.90
46490;DHT22;32204;49.160;8.580;2023-04-01T00:40:40;10.60;99.90
46490;DHT22;32204;49.160;8.580;2023-04-01T00:43:12;10.60;99.90
46490;DHT22;32204;49.160;8.580;2023-04-01T00:45:40;10.60;99.90
46490;DHT22;32204;49.160;8.580;2023-04-01T00:48:19;10.60;99.90
46490;DHT22;32204;49.160;8.580;2023-04-01T00:51:06;10.60;99.90
46490;DHT22;32204;49.160;8.580;2023-04-01T00:53:35;10.60;1.00
46490;DHT22;32204;49.160;8.580;2023-04-01T00:56:13;10.60;1.00
46490;DHT22;32204;49.160;8.580;2023-04-01T00:58:44;10.60;1.00
46490;DHT22;32204;49.160;8.580;2023-04-01T01:01:10;10.60;1.00
46490;DHT22;32204;49.160;8.580;2023-04-01T01:03:36;10.60;99.90
46490;DHT22;32204;49.160;8.580;2023-04-01T01:11:41;10.70;99.90
46490;DHT22;32204;49.160;8.580;2023-04-01T01:16:51;10.70;99.90
46490;DHT22;32204;49.160;8.580;2023-04-01T01:22:32;10.60;1.00
46490;DHT22;32204;49.160;8.580;2023-04-01T01:27:58;10.70;1.00
46490;DHT22;32204;49.160;8.580;2023-04-01T01:30:48;10.70;1.00
46490;DHT22;32204;49.160;8.580;2023-04-01T01:36:06;10.70;99.90
46490;DHT22;32204;49.160;8.580;2023-04-01T01:38:34;10.70;99.90
46490;DHT22;32204;49.160;8.580;2023-04-01T01:41:03;10.80;99.90
46490;DHT22;32204;49.160;8.580;2023-04-01T01:43:32;10.70;99.90
46490;DHT22;32204;49.160;8.580;2023-04-01T01:46:00;10.80;99.90
46490;DHT22;32204;49.160;8.580;2023-04-01T01:48:26;10.80;99.90
46490;DHT22;32204;49.160;8.580;2023-04-01T01:50:53;10.80;86.30
46490;DHT22;32204;49.160;8.580;2023-04-01T01:53:19;10.80;56.60
46490;DHT22;32204;49.160;8.580;2023-04-01T01:55:47;10.70;90.90
46490;DHT22;32204;49.160;8.580;2023-04-01T01:58:33;10.70;99.90
46490;DHT22;32204;49.160;8.580;2023-04-01T02:01:07;10.70;99.90
46490;DHT22;32204;49.160;8.580;2023-04-01T02:03:39;10.70;99.90
46490;DHT22;32204;49.160;8.580;2023-04-01T02:06:10;10.70;99.90
46490;DHT22;32204;49.160;8.580;2023-04-01T02:08:43;10.70;99.90
46490;DHT22;32204;49.160;8.580;2023-04-01T02:11:12;10.70;1.00
46490;DHT22;32204;49.160;8.580;2023-04-01T02:13:49;10.70;99.90
46490;DHT22;32204;49.160;8.580;2023-04-01T02:16:22;10.80;1.00
46490;DHT22;32204;49.160;8.580;2023-04-01T02:18:51;10.70;1.00
46490;DHT22;32204;49.160;8.580;2023-04-01T02:21:20;10.70;1.00
46490;DHT22;32204;49.160;8.580;2023-04-01T02:23:47;10.70;1.00
46490;DHT22;32204;49.160;8.580;2023-04-01T02:26:13;10.70;1.00
46490;DHT22;32204;49.160;8.580;2023-04-01T02:28:40;10.70;1.00
46490;DHT22;32204;49.160;8.580;2023-04-01T02:31:09;10.70;1.00
46490;DHT22;32204;49.160;8.580;2023-04-01T02:33:36;10.70;1.00
46490;DHT22;32204;49.160;8.580;2023-04-01T02:36:03;10.60;99.90
46490;DHT22;32204;49.160;8.580;2023-04-01T02:38:29;10.50;99.90
46490;DHT22;32204;49.160;8.580;2023-04-01T02:40:59;10.40;90.10
46490;DHT22;32204;49.160;8.580;2023-04-01T02:43:26;10.40;99.90
46490;DHT22;32204;49.160;8.580;2023-04-01T02:45:52;10.50;1.00
46490;DHT22;32204;49.160;8.580;2023-04-01T02:48:18;10.40;1.00
46490;DHT22;32204;49.160;8.580;2023-04-01T02:50:44;10.40;1.00
46490;DHT22;32204;49.160;8.580;2023-04-01T02:53:09;10.50;1.00
46490;DHT22;32204;49.160;8.580;2023-04-01T02:55:35;10.50;1.00
46490;DHT22;32204;49.160;8.580;2023-04-01T02:58:01;10.50;1.00
46490;DHT22;32204;49.160;8.580;2023-04-01T03:00:27;10.50;97.90
46490;DHT22;32204;49.160;8.580;2023-04-01T03:02:53;10.40;99.90
46490;DHT22;32204;49.160;8.580;2023-04-01T03:05:19;10.40;99.90
46490;DHT22;32204;49.160;8.580;2023-04-01T03:07:45;10.40;99.90
46490;DHT22;32204;49.160;8.580;2023-04-01T03:10:10;10.40;99.90
46490;DHT22;32204;49.160;8.580;2023-04-01T03:12:36;10.40;99.90
46490;DHT22;32204;49.160;8.580;2023-04-01T03:15:02;10.40;83.00
46490;DHT22;32204;49.160;8.580;2023-04-01T03:17:28;10.40;99.90
46490;DHT22;32204;49.160;8.580;2023-04-01T03:19:53;10.40;99.90
46490;DHT22;32204;49.160;8.580;2023-04-01T03:22:19;10.40;32.50
46490;DHT22;32204;49.160;8.580;2023-04-01T03:24:47;10.40;44.50
46490;DHT22;32204;49.160;8.580;2023-04-01T03:27:13;10.40;99.90
46490;DHT22;32204;49.160;8.580;2023-04-01T03:29:38;10.40;99.90
46490;DHT22;32204;49.160;8.580;2023-04-01T03:32:04;10.40;14.70
46490;DHT22;32204;49.160;8.580;2023-04-01T03:34:30;10.40;99.90
46490;DHT22;32204;49.160;8.580;2023-04-01T03:36:56;10.40;97.30
46490;DHT22;32204;49.160;8.580;2023-04-01T03:39:22;10.40;35.00
46490;DHT22;32204;49.160;8.580;2023-04-01T03:41:48;10.40;99.90
46490;DHT22;32204;49.160;8.580;2023-04-01T03:44:14;10.40;1.00
46490;DHT22;32204;49.160;8.580;2023-04-01T03:46:39;10.40;1.00
46490;DHT22;32204;49.160;8.580;2023-04-01T03:49:09;10.40;99.90
46490;DHT22;32204;49.160;8.580;2023-04-01T03:51:38;10.40;99.90
46490;DHT22;32204;49.160;8.580;2023-04-01T03:54:04;10.20;99.90
46490;DHT22;32204;49.160;8.580;2023-04-01T03:56:30;10.20;99.90
46490;DHT22;32204;49.160;8.580;2023-04-01T03:58:56;10.10;99.90
46490;DHT22;32204;49.160;8.580;2023-04-01T04:01:22;10.10;99.90
46490;DHT22;32204;49.160;8.580;2023-04-01T04:03:49;10.10;99.90
46490;DHT22;32204;49.160;8.580;2023-04-01T04:06:16;10.10;99.90
46490;DHT22;32204;49.160;8.580;2023-04-01T04:08:41;10.10;99.90
46490;DHT22;32204;49.160;8.580;2023-04-01T04:11:08;10.20;99.90
46490;DHT22;32204;49.160;8.580;2023-04-01T04:13:34;10.10;99.90
46490;DHT22;32204;49.160;8.580;2023-04-01T04:15:59;10.20;99.90
46490;DHT22;32204;49.160;8.580;2023-04-01T04:18:25;10.20;99.90
46490;DHT22;32204;49.160;8.580;2023-04-01T04:20:50;10.20;1.00
46490;DHT22;32204;49.160;8.580;2023-04-01T04:23:17;10.20;99.90
46490;DHT22;32204;49.160;8.580;2023-04-01T04:25:53;10.20;99.90
46490;DHT22;32204;49.160;8.580;2023-04-01T04:28:19;10.30;99.90
46490;DHT22;32204;49.160;8.580;2023-04-01T04:30:44;10.30;99.90
46490;DHT22;32204;49.160;8.580;2023-04-01T04:33:10;10.30;77.90
46490;DHT22;32204;49.160;8.580;2023-04-01T04:35:36;10.30;99.90
46490;DHT22;32204;49.160;8.580;2023-04-01T04:38:01;10.30;1.00
46490;DHT22;32204;49.160;8.580;2023-04-01T04:40:27;10.30;1.00
46490;DHT22;32204;49.160;8.580;2023-04-01T04:42:52;10.40;1.00
46490;DHT22;32204;49.160;8.580;2023-04-01T04:45:18;10.40;1.00
46490;DHT22;32204;49.160;8.580;2023-04-01T04:47:43;10.40;1.00
46490;DHT22;32204;49.160;8.580;2023-04-01T04:50:09;10.40;1.00
46490;DHT22;32204;49.160;8.580;2023-04-01T04:52:35;10.40;1.00
46490;DHT22;32204;49.160;8.580;2023-04-01T04:55:01;10.40;99.90
46490;DHT22;32204;49.160;8.580;2023-04-01T04:57:26;10.40;99.90
46490;DHT22;32204;49.160;8.580;2023-04-01T04:59:52;10.50;1.00
46490;DHT22;32204;49.160;8.580;2023-04-01T05:02:17;10.40;99.90
46490;DHT22;32204;49.160;8.580;2023-04-01T05:04:43;10.50;1.00
46490;DHT22;32204;49.160;8.580;2023-04-01T05:07:09;10.50;99.90
46490;DHT22;32204;49.160;8.580;2023-04-01T05:09:35;10.60;99.90
46490;DHT22;32204;49.160;8.580;2023-04-01T05:12:00;10.60;23.00
46490;DHT22;32204;49.160;8.580;2023-04-01T05:14:26;10.60;99.90
46490;DHT22;32204;49.160;8.580;2023-04-01T05:16:51;10.60;1.00
46490;DHT22;32204;49.160;8.580;2023-04-01T05:19:17;10.60;1.10
46490;DHT22;32204;49.160;8.580;2023-04-01T05:21:43;10.60;14.40
46490;DHT22;32204;49.160;8.580;2023-04-01T05:24:09;10.70;99.90
46490;DHT22;32204;49.160;8.580;2023-04-01T05:26:35;10.70;99.90
46490;DHT22;32204;49.160;8.580;2023-04-01T05:29:03;10.70;1.00
46490;DHT22;32204;49.160;8.580;2023-04-01T05:31:29;10.70;1.00
46490;DHT22;32204;49.160;8.580;2023-04-01T05:33:55;10.70;99.90
46490;DHT22;32204;49.160;8.580;2023-04-01T05:36:21;10.60;1.00
46490;DHT22;32204;49.160;8.580;2023-04-01T05:38:47;10.60;99.90
46490;DHT22;32204;49.160;8.580;2023-04-01T05:41:13;10.60;99.90
46490;DHT22;32204;49.160;8.580;2023-04-01T05:43:40;10.60;1.00
46490;DHT22;32204;49.160;8.580;2023-04-01T05:46:06;10.60;1.00
46490;DHT22;32204;49.160;8.580;2023-04-01T05:48:33;10.50;1.00
46490;DHT22;32204;49.160;8.580;2023-04-01T05:51:00;10.60;1.00
46490;DHT22;32204;49.160;8.580;2023-04-01T05:53:26;10.60;99.90
46490;DHT22;32204;49.160;8.580;2023-04-01T05:55:51;10.50;91.90
46490;DHT22;32204;49.160;8.580;2023-04-01T05:58:17;10.50;99.90
46490;DHT22;32204;49.160;8.580;2023-04-01T06:00:43;10.60;99.90
46490;DHT22;32204;49.160;8.580;2023-04-01T06:03:09;10.60;99.90
46490;DHT22;32204;49.160;8.580;2023-04-01T06:05:42;10.60;99.90
46490;DHT22;32204;49.160;8.580;2023-04-01T06:08:15;10.60;99.90
46490;DHT22;32204;49.160;8.580;2023-04-01T06:13:48;10.50;83.40
46490;DHT22;32204;49.160;8.580;2023-04-01T06:19:20;10.30;99.90
46490;DHT22;32204;49.160;8.580;2023-04-01T06:22:18;10.40;99.90
46490;DHT22;32204;49.160;8.580;2023-04-01T06:33:19;10.30;1.00
46490;DHT22;32204;49.160;8.580;2023-04-01T06:46:16;10.20;99.90
46490;DHT22;32204;49.160;8.580;2023-04-01T06:54:52;10.10;99.90
46490;DHT22;32204;49.160;8.580;2023-04-01T06:57:24;10.10;99.90
46490;DHT22;32204;49.160;8.580;2023-04-01T06:59:55;10.10;99.90
46490;DHT22;32204;49.160;8.580;2023-04-01T07:02:39;10.20;99.90
46490;DHT22;32204;49.160;8.580;2023-04-01T07:05:07;10.20;99.90
46490;DHT22;32204;49.160;8.580;2023-04-01T07:07:43;10.20;99.90
46490;DHT22;32204;49.160;8.580;2023-04-01T07:10:18;10.20;1.00
46490;DHT22;32204;49.160;8.580;2023-04-01T07:12:58;10.20;1.00
46490;DHT22;32204;49.160;8.580;2023-04-01T07:15:39;10.20;1.00
46490;DHT22;32204;49.160;8.580;2023-04-01T07:18:16;10.20;1.00
46490;DHT22;32204;49.160;8.580;2023-04-01T07:20:43;10.20;1.00
46490;DHT22;32204;49.160;8.580;2023-04-01T07:23:38;10.20;1.00
46490;DHT22;32204;49.160;8.580;2023-04-01T07:26:20;10.20;1.00
46490;DHT22;32204;49.160;8.580;2023-04-01T07:28:50;10.20;1.00
46490;DHT22;32204;49.160;8.580;2023-04-01T07:34:18;10.40;1.00
46490;DHT22;32204;49.160;8.580;2023-04-01T07:45:21;10.40;16.60
46490;DHT22;32204;49.160;8.580;2023-04-01T07:50:55;10.30;97.10
46490;DHT22;32204;49.160;8.580;2023-04-01T07:56:09;10.20;99.90
46490;DHT22;32204;49.160;8.580;2023-04-01T08:03:53;10.10;99.90
46490;DHT22;32204;49.160;8.580;2023-04-01T08:07:00;10.10;99.90
46490;DHT22;32204;49.160;8.580;2023-04-01T08:15:08;10.10;99.90
46490;DHT22;32204;49.160;8.580;2023-04-01T08:22:50;10.20;99.90
46490;DHT22;32204;49.160;8.580;2023-04-01T08:25:21;10.20;99.90
46490;DHT22;32204;49.160;8.580;2023-04-01T08:31:40;10.10;99.90
46490;DHT22;32204;49.160;8.580;2023-04-01T08:33:41;10.10;99.90
46490;DHT22;32204;49.160;8.580;2023-04-01T08:36:11;10.20;99.90
46490;DHT22;32204;49.160;8.580;2023-04-01T08:38:46;10.20;99.90
46490;DHT22;32204;49.160;8.580;2023-04-01T08:47:21;10.40;99.90
46490;DHT22;32204;49.160;8.580;2023-04-01T08:50:31;10.40;99.90
46490;DHT22;32204;49.160;8.580;2023-04-01T08:53:18;10.40;99.90
46490;DHT22;32204;49.160;8.580;2023-04-01T09:16:12;10.60;33.00
46490;DHT22;32204;49.160;8.580;2023-04-01T09:37:35;11.00;1.00
46490;DHT22;32204;49.160;8.580;2023-04-01T09:43:15;11.10;1.00
46490;DHT22;32204;49.160;8.580;2023-04-01T09:45:43;11.00;1.00
46490;DHT22;32204;49.160;8.580;2023-04-01T09:48:21;10.90;1.00
46490;DHT22;32204;49.160;8.580;2023-04-01T09:50:52;10.90;1.00
46490;DHT22;32204;49.160;8.580;2023-04-01T09:56:18;11.00;1.00
46490;DHT22;32204;49.160;8.580;2023-04-01T10:04:39;11.10;1.00
46490;DHT22;32204;49.160;8.580;2023-04-01T10:21:47;11.30;1.00
46490;DHT22;32204;49.160;8.580;2023-04-01T10:25:00;11.30;1.00
46490;DHT22;32204;49.160;8.580;2023-04-01T10:47:32;11.40;1.00
46490;DHT22;32204;49.160;8.580;2023-04-01T10:56:08;11.40;1.00
46490;DHT22;32204;49.160;8.580;2023-04-01T11:02:02;11.00;8.50
46490;DHT22;32204;49.160;8.580;2023-04-01T11:10:50;11.00;99.90
46490;DHT22;32204;49.160;8.580;2023-04-01T11:21:48;11.20;76.80
46490;DHT22;32204;49.160;8.580;2023-04-01T11:27:24;11.00;99.90
46490;DHT22;32204;49.160;8.580;2023-04-01T11:30:05;11.10;99.90
46490;DHT22;32204;49.160;8.580;2023-04-01T11:38:04;11.20;60.90
46490;DHT22;32204;49.160;8.580;2023-04-01T11:40:45;11.10;99.90
46490;DHT22;32204;49.160;8.580;2023-04-01T11:45:51;11.00;99.90
46490;DHT22;32204;49.160;8.580;2023-04-01T11:51:29;11.00;99.90
46490;DHT22;32204;49.160;8.580;2023-04-01T11:54:28;11.10;99.90
46490;DHT22;32204;49.160;8.580;2023-04-01T12:05:32;11.00;99.90
46490;DHT22;32204;49.160;8.580;2023-04-01T12:14:17;11.00;99.90
46490;DHT22;32204;49.160;8.580;2023-04-01T12:26:10;11.50;96.70
46490;DHT22;32204;49.160;8.580;2023-04-01T12:29:03;11.60;99.90
46490;DHT22;32204;49.160;8.580;2023-04-01T12:34:54;11.50;99.90
46490;DHT22;32204;49.160;8.580;2023-04-01T12:48:16;11.60;50.80
46490;DHT22;32204;49.160;8.580;2023-04-01T12:51:17;11.50;1.00
46490;DHT22;32204;49.160;8.580;2023-04-01T12:54:15;11.50;31.70
46490;DHT22;32204;49.160;8.580;2023-04-01T12:59:38;11.60;1.00
46490;DHT22;32204;49.160;8.580;2023-04-01T13:16:38;11.50;1.00
46490;DHT22;32204;49.160;8.580;2023-04-01T13:27:41;11.30;1.00
46490;DHT22;32204;49.160;8.580;2023-04-01T13:44:35;11.40;99.90
46490;DHT22;32204;49.160;8.580;2023-04-01T14:00:53;11.40;99.90
46490;DHT22;32204;49.160;8.580;2023-04-01T14:03:37;11.40;99.90
46490;DHT22;32204;49.160;8.580;2023-04-01T14:09:49;11.40;99.90
46490;DHT22;32204;49.160;8.580;2023-04-01T14:15:41;11.50;99.90
46490;DHT22;32204;49.160;8.580;2023-04-01T14:24:15;11.30;99.90
46490;DHT22;32204;49.160;8.580;2023-04-01T14:49:30;11.00;99.90
46490;DHT22;32204;49.160;8.580;2023-04-01T14:52:26;11.00;99.90
46490;DHT22;32204;49.160;8.580;2023-04-01T14:54:51;11.00;99.90
46490;DHT22;32204;49.160;8.580;2023-04-01T14:57:28;11.00;99.90
46490;DHT22;32204;49.160;8.580;2023-04-01T14:59:59;10.90;99.90
46490;DHT22;32204;49.160;8.580;2023-04-01T15:05:30;11.10;99.90
46490;DHT22;32204;49.160;8.580;2023-04-01T15:08:03;11.10;99.90
46490;DHT22;32204;49.160;8.580;2023-04-01T15:13:50;11.20;90.40
46490;DHT22;32204;49.160;8.580;2023-04-01T15:16:29;11.10;95.40
46490;DHT22;32204;49.160;8.580;2023-04-01T15:24:38;11.20;1.00
46490;DHT22;32204;49.160;8.580;2023-04-01T15:27:16;11.30;13.90
46490;DHT22;32204;49.160;8.580;2023-04-01T15:40:43;11.40;1.00
46490;DHT22;32204;49.160;8.580;2023-04-01T15:46:46;11.20;1.00
46490;DHT22;32204;49.160;8.580;2023-04-01T15:49:28;11.20;1.00
46490;DHT22;32204;49.160;8.580;2023-04-01T16:16:12;11.40;1.00
46490;DHT22;32204;49.160;8.580;2023-04-01T16:19:17;11.40;1.00
46490;DHT22;32204;49.160;8.580;2023-04-01T16:22:00;11.30;1.00
46490;DHT22;32204;49.160;8.580;2023-04-01T16:24:48;11.40;1.00
46490;DHT22;32204;49.160;8.580;2023-04-01T16:40:50;11.20;1.00
46490;DHT22;32204;49.160;8.580;2023-04-01T16:43:25;11.20;1.00
46490;DHT22;32204;49.160;8.580;2023-04-01T16:51:48;11.30;1.00
46490;DHT22;32204;49.160;8.580;2023-04-01T16:54:44;11.30;1.00
46490;DHT22;32204;49.160;8.580;2023-04-01T17:00:38;11.30;1.00
46490;DHT22;32204;49.160;8.580;2023-04-01T17:02:37;11.20;1.00
46490;DHT22;32204;49.160;8.580;2023-04-01T17:05:06;11.30;1.00
46490;DHT22;32204;49.160;8.580;2023-04-01T17:08:25;11.30;1.00
46490;DHT22;32204;49.160;8.580;2023-04-01T17:10:58;11.30;1.00
46490;DHT22;32204;49.160;8.580;2023-04-01T17:22:21;11.30;43.70
46490;DHT22;32204;49.160;8.580;2023-04-01T17:30:28;11.30;99.90
46490;DHT22;32204;49.160;8.580;2023-04-01T17:33:23;11.30;56.10
46490;DHT22;32204;49.160;8.580;2023-04-01T17:44:46;11.20;1.00
46490;DHT22;32204;49.160;8.580;2023-04-01T17:55:36;11.10;1.00
46490;DHT22;32204;49.160;8.580;2023-04-01T17:58:18;11.10;1.00
46490;DHT22;32204;49.160;8.580;2023-04-01T18:17:25;11.10;1.00
46490;DHT22;32204;49.160;8.580;2023-04-01T18:22:43;11.10;1.00
46490;DHT22;32204;49.160;8.580;2023-04-01T18:30:53;11.00;1.00
46490;DHT22;32204;49.160;8.580;2023-04-01T18:33:23;10.90;99.90
46490;DHT22;32204;49.160;8.580;2023-04-01T18:36:36;10.90;99.90
46490;DHT22;32204;49.160;8.580;2023-04-01T18:47:17;10.80;1.00
46490;DHT22;32204;49.160;8.580;2023-04-01T18:50:01;10.80;1.00
46490;DHT22;32204;49.160;8.580;2023-04-01T18:52:39;10.80;1.00
46490;DHT22;32204;49.160;8.580;2023-04-01T18:58:22;10.90;1.00
46490;DHT22;32204;49.160;8.580;2023-04-01T19:06:34;10.90;1.00
46490;DHT22;32204;49.160;8.580;2023-04-01T19:09:18;10.90;1.00
46490;DHT22;32204;49.160;8.580;2023-04-01T19:14:32;10.90;1.00
46490;DHT22;32204;49.160;8.580;2023-04-01T19:20:20;10.80;1.00
46490;DHT22;32204;49.160;8.580;2023-04-01T19:25:55;10.80;1.00
46490;DHT22;32204;49.160;8.580;2023-04-01T19:36:49;10.70;1.00
46490;DHT22;32204;49.160;8.580;2023-04-01T19:39:37;10.70;1.00
46490;DHT22;32204;49.160;8.580;2023-04-01T19:42:25;10.70;1.00
46490;DHT22;32204;49.160;8.580;2023-04-01T19:51:07;10.60;1.00
46490;DHT22;32204;49.160;8.580;2023-04-01T19:56:39;10.50;1.00
46490;DHT22;32204;49.160;8.580;2023-04-01T20:04:51;10.40;1.00
46490;DHT22;32204;49.160;8.580;2023-04-01T20:13:00;10.40;1.00
46490;DHT22;32204;49.160;8.580;2023-04-01T20:15:35;10.30;1.00
46490;DHT22;32204;49.160;8.580;2023-04-01T20:18:25;10.30;1.00
46490;DHT22;32204;49.160;8.580;2023-04-01T20:20:56;10.30;1.00
46490;DHT22;32204;49.160;8.580;2023-04-01T20:26:01;10.30;1.00
46490;DHT22;32204;49.160;8.580;2023-04-01T20:31:34;10.30;1.00
46490;DHT22;32204;49.160;8.580;2023-04-01T20:37:16;10.40;1.00
46490;DHT22;32204;49.160;8.580;2023-04-01T20:43:22;10.40;99.90
46490;DHT22;32204;49.160;8.580;2023-04-01T20:51:26;10.60;99.90
46490;DHT22;32204;49.160;8.580;2023-04-01T20:57:03;10.70;21.40
46490;DHT22;32204;49.160;8.580;2023-04-01T21:10:56;10.90;1.00
46490;DHT22;32204;49.160;8.580;2023-04-01T21:22:08;10.80;99.90
46490;DHT22;32204;49.160;8.580;2023-04-01T21:35:59;10.80;1.00
46490;DHT22;32204;49.160;8.580;2023-04-01T21:38:43;10.80;1.00
46490;DHT22;32204;49.160;8.580;2023-04-01T21:41:23;10.70;1.00
46490;DHT22;32204;49.160;8.580;2023-04-01T21:47:22;10.80;1.00
46490;DHT22;32204;49.160;8.580;2023-04-01T21:49:57;10.70;1.00
46490;DHT22;32204;49.160;8.580;2023-04-01T21:55:38;10.70;99.90
46490;DHT22;32204;49.160;8.580;2023-04-01T21:58:31;10.70;99.90
46490;DHT22;32204;49.160;8.580;2023-04-01T22:01:12;10.70;99.90
46490;DHT22;32204;49.160;8.580;2023-04-01T22:09:32;10.60;99.90
46490;DHT22;32204;49.160;8.580;2023-04-01T22:14:38;10.60;1.00
46490;DHT22;32204;49.160;8.580;2023-04-01T22:17:25;10.50;1.00
46490;DHT22;32204;49.160;8.580;2023-04-01T22:25:49;10.40;1.00
46490;DHT22;32204;49.160;8.580;2023-04-01T22:28:35;10.40;1.00
46490;DHT22;32204;49.160;8.580;2023-04-01T22:31:03;10.40;1.00
46490;DHT22;32204;49.160;8.580;2023-04-01T22:36:51;10.40;1.00
46490;DHT22;32204;49.160;8.580;2023-04-01T22:39:23;10.40;1.00
46490;DHT22;32204;49.160;8.580;2023-04-01T22:49:57;10.20;1.00
46490;DHT22;32204;49.160;8.580;2023-04-01T22:55:08;10.20;1.00
46490;DHT22;32204;49.160;8.580;2023-04-01T22:57:51;10.20;1.00
46490;DHT22;32204;49.160;8.580;2023-04-01T23:00:42;10.20;1.00
46490;DHT22;32204;49.160;8.580;2023-04-01T23:03:21;10.20;1.00
46490;DHT22;32204;49.160;8.580;2023-04-01T23:05:55;10.20;1.00
46490;DHT22;32204;49.160;8.580;2023-04-01T23:11:15;10.20;99.90
46490;DHT22;32204;49.160;8.580;2023-04-01T23:14:16;10.20;99.90
46490;DHT22;32204;49.160;8.580;2023-04-01T23:16:38;10.30;1.00
46490;DHT22;32204;49.160;8.580;2023-04-01T23:24:46;10.30;99.90
46490;DHT22;32204;49.160;8.580;2023-04-01T23:27:35;10.30;99.90
46490;DHT22;32204;49.160;8.580;2023-04-01T23:30:10;10.40;99.90
46490;DHT22;32204;49.160;8.580;2023-04-01T23:32:50;10.40;99.90
46490;DHT22;32204;49.160;8.580;2023-04-01T23:35:16;10.40;99.90
46490;DHT22;32204;49.160;8.580;2023-04-01T23:37:42;10.30;99.90
46490;DHT22;32204;49.160;8.580;2023-04-01T23:40:12;10.40;99.90
46490;DHT22;32204;49.160;8.580;2023-04-01T23:42:40;10.30;99.90
46490;DHT22;32204;49.160;8.580;2023-04-01T23:45:14;10.40;99.90
46490;DHT22;32204;49.160;8.580;2023-04-01T23:47:43;10.30;99.90
46490;DHT22;32204;49.160;8.580;2023-04-01T23:50:20;10.30;99.90
46490;DHT22;32204;49.160;8.580;2023-04-01T23:53:04;10.30;99.90
46490;DHT22;32204;49.160;8.580;2023-04-01T23:55:35;10.30;99.90
